CDT,Max TemperatureF,Mean TemperatureF,Min TemperatureF,Max Dew PointF,MeanDew PointF,Min DewpointF,Max Humidity, Mean Humidity, Min Humidity, Max Sea Level PressureIn, Mean Sea Level PressureIn, Min Sea Level PressureIn, Max VisibilityMiles, Mean VisibilityMiles, Min VisibilityMiles, Max Wind SpeedMPH, Mean Wind SpeedMPH, Max Gust SpeedMPH,PrecipitationIn, CloudCover, Events, WindDirDegrees
2012-9-1,95,86,77,76,74,72,89,74,48,30.08,30.03,29.96,10,10,10,16,9,32,0.00,6,,198
2012-9-2,97,86,76,74,72,68,89,68,40,30.05,29.98,29.91,10,10,10,13,8,,0.00,1,,218
2012-9-3,98,88,78,74,72,67,85,62,36,29.99,29.93,29.87,10,10,10,10,7,,0.00,0,,209
2012-9-4,97,88,77,75,72,69,88,64,40,29.95,29.90,29.85,10,10,10,13,8,,0.00,0,,197
2012-9-5,99,88,77,73,70,66,85,59,34,29.91,29.86,29.80,10,10,10,13,7,,0.00,0,,201
2012-9-6,101,88,76,74,70,63,84,56,29,29.93,29.88,29.82,10,10,10,13,4,17,0.00,2,,189
2012-9-7,98,88,77,74,71,67,87,61,38,29.91,29.84,29.77,10,10,10,10,5,,0.00,2,,160
2012-9-8,85,75,63,75,66,52,94,74,33,30.04,29.93,29.81,10,10,5,15,7,25,0.06,6,Rain,16
2012-9-9,88,72,57,58,53,45,87,57,23,30.13,30.07,30.02,10,10,10,7,1,,0.00,0,,47
2012-9-10,88,74,58,60,55,51,92,55,29,30.15,30.08,30.04,10,10,10,8,2,,0.00,0,,157
2012-9-11,89,74,59,61,57,53,93,52,29,30.15,30.09,30.04,10,10,10,13,5,,0.00,0,,121
2012-9-12,91,76,62,68,64,59,88,64,42,30.12,30.07,30.00,10,10,10,14,4,,0.02,2,,130
2012-9-13,91,80,70,72,69,65,100,77,46,30.17,30.11,30.03,10,8,1,18,6,26,2.18,6,Rain-Thunderstorm,166
2012-9-14,85,76,69,73,71,69,100,90,62,30.18,30.14,30.10,10,9,1,16,3,,0.40,6,Rain-Thunderstorm,112
2012-9-15,82,76,69,73,71,69,100,91,66,30.17,30.12,30.06,10,8,1,23,4,23,1.58,6,Rain-Thunderstorm,57
2012-9-16,79,74,68,73,70,68,100,93,69,30.08,30.03,29.97,10,8,2,13,2,,0.09,4,Rain,338
2012-9-17,73,70,68,72,70,68,100,99,88,29.97,29.88,29.78,10,7,2,14,5,,1.86,8,Rain-Thunderstorm,3
2012-9-18,81,72,61,70,66,60,100,88,60,30.07,29.93,29.84,10,10,10,14,5,17,13.53,4,Rain,354
2012-9-19,79,67,55,59,53,48,100,68,34,30.17,30.11,30.06,10,10,10,6,1,,0.00,0,,108
2012-9-20,82,68,53,60,55,50,95,68,36,30.12,30.06,30.00,10,10,10,7,2,,0.00,0,,147
2012-9-21,87,72,57,62,58,54,98,68,33,30.06,30.00,29.95,10,10,10,9,4,,0.00,0,,153
2012-9-22,91,75,59,67,62,58,96,60,36,30.11,30.05,29.98,10,10,10,12,4,,0.00,0,Rain,168
2012-9-23,88,76,65,68,65,56,100,67,43,30.20,30.14,30.10,10,10,10,10,2,,0.00,2,,81
2012-9-24,88,74,61,70,62,55,87,69,49,30.19,30.11,30.02,10,10,10,12,3,,0.00,0,,151
2012-9-25,90,79,68,72,68,64,100,71,42,30.07,30.02,29.97,10,10,3,14,9,,0.00,1,Rain,182
2012-9-26,89,77,66,72,67,63,100,79,42,30.09,30.04,30.00,10,8,1,13,6,,0.00,1,Rain,163
2012-9-27,88,76,64,69,66,63,98,72,43,30.13,30.07,30.01,10,10,10,12,4,,0.00,1,Rain,145
2012-9-28,89,76,65,68,65,59,98,65,36,30.09,30.02,29.96,10,10,8,8,2,,0.00,1,Rain,86
2012-9-29,74,70,66,73,69,64,100,92,81,29.99,29.91,29.85,10,7,3,14,6,22,0.00,5,Rain,68
2012-9-30,66,62,59,66,63,55,100,95,82,29.84,29.73,29.67,10,8,4,20,11,32,0.00,7,Rain,29